sensor_id;sensor_type;location;lat;lon;timestamp;P1;durP1;ratioP1;P2;durP2;ratioP2
70075;SDS011;63241;51.056;3.698;2022-12-11T01:10:48;55.10;;;26.77;;
70075;SDS011;63241;51.056;3.698;2022-12-11T01:13:18;51.77;;;26.62;;
70075;SDS011;63241;51.056;3.698;2022-12-11T01:19:02;57.98;;;27.95;;
70075;SDS011;63241;51.056;3.698;2022-12-11T01:21:30;48.30;;;25.60;;
70075;SDS011;63241;51.056;3.698;2022-12-11T01:23:58;51.25;;;26.20;;
70075;SDS011;63241;51.056;3.698;2022-12-11T01:26:25;53.40;;;26.27;;
70075;SDS011;63241;51.056;3.698;2022-12-11T01:32:35;50.28;;;24.55;;
70075;SDS011;63241;51.056;3.698;2022-12-11T01:35:03;47.85;;;25.12;;
70075;SDS011;63241;51.056;3.698;2022-12-11T01:37:32;47.08;;;24.67;;
70075;SDS011;63241;51.056;3.698;2022-12-11T01:40:00;44.20;;;23.15;;
70075;SDS011;63241;51.056;3.698;2022-12-11T01:46:04;47.83;;;23.73;;
70075;SDS011;63241;51.056;3.698;2022-12-11T01:48:32;46.00;;;22.45;;
70075;SDS011;63241;51.056;3.698;2022-12-11T01:51:00;45.00;;;22.77;;
70075;SDS011;63241;51.056;3.698;2022-12-11T01:53:32;44.98;;;23.47;;
70075;SDS011;63241;51.056;3.698;2022-12-11T01:59:42;41.77;;;21.82;;
70075;SDS011;63241;51.056;3.698;2022-12-11T02:02:19;43.23;;;22.55;;
70075;SDS011;63241;51.056;3.698;2022-12-11T02:04:52;41.50;;;23.12;;
70075;SDS011;63241;51.056;3.698;2022-12-11T02:07:20;52.38;;;24.35;;
70075;SDS011;63241;51.056;3.698;2022-12-11T02:12:58;49.48;;;24.50;;
70075;SDS011;63241;51.056;3.698;2022-12-11T02:15:30;42.75;;;23.77;;
70075;SDS011;63241;51.056;3.698;2022-12-11T02:18:03;50.95;;;23.70;;
70075;SDS011;63241;51.056;3.698;2022-12-11T02:20:48;44.70;;;23.35;;
70075;SDS011;63241;51.056;3.698;2022-12-11T02:29:57;44.63;;;21.80;;
70075;SDS011;63241;51.056;3.698;2022-12-11T02:32:42;43.83;;;23.67;;
70075;SDS011;63241;51.056;3.698;2022-12-11T02:41:48;50.80;;;26.02;;
70075;SDS011;63241;51.056;3.698;2022-12-11T02:44:23;45.83;;;25.35;;
70075;SDS011;63241;51.056;3.698;2022-12-11T02:46:47;58.13;;;28.02;;
70075;SDS011;63241;51.056;3.698;2022-12-11T02:55:51;49.25;;;24.77;;
70075;SDS011;63241;51.056;3.698;2022-12-11T02:58:21;58.17;;;28.60;;
70075;SDS011;63241;51.056;3.698;2022-12-11T03:00:51;52.73;;;28.05;;
70075;SDS011;63241;51.056;3.698;2022-12-11T03:09:51;55.58;;;28.32;;
70075;SDS011;63241;51.056;3.698;2022-12-11T03:12:20;56.13;;;29.15;;
70075;SDS011;63241;51.056;3.698;2022-12-11T03:14:59;60.45;;;31.62;;
70075;SDS011;63241;51.056;3.698;2022-12-11T03:21:35;59.42;;;27.58;;
70075;SDS011;63241;51.056;3.698;2022-12-11T03:26:49;68.60;;;28.32;;
70075;SDS011;63241;51.056;3.698;2022-12-11T03:35:35;58.15;;;28.47;;
70075;SDS011;63241;51.056;3.698;2022-12-11T03:38:17;58.58;;;28.07;;
70075;SDS011;63241;51.056;3.698;2022-12-11T03:40:47;57.23;;;28.30;;
70075;SDS011;63241;51.056;3.698;2022-12-11T03:43:19;56.33;;;28.92;;
70075;SDS011;63241;51.056;3.698;2022-12-11T03:49:04;50.65;;;26.02;;
70075;SDS011;63241;51.056;3.698;2022-12-11T03:51:33;50.73;;;26.93;;
70075;SDS011;63241;51.056;3.698;2022-12-11T03:54:02;48.87;;;24.35;;
70075;SDS011;63241;51.056;3.698;2022-12-11T03:56:30;56.83;;;27.25;;
70075;SDS011;63241;51.056;3.698;2022-12-11T04:02:27;52.93;;;25.80;;
70075;SDS011;63241;51.056;3.698;2022-12-11T04:04:55;46.65;;;25.43;;
70075;SDS011;63241;51.056;3.698;2022-12-11T04:07:23;46.80;;;24.25;;
70075;SDS011;63241;51.056;3.698;2022-12-11T04:09:51;45.90;;;25.25;;
70075;SDS011;63241;51.056;3.698;2022-12-11T04:15:57;43.30;;;22.85;;
70075;SDS011;63241;51.056;3.698;2022-12-11T04:18:25;43.92;;;24.10;;
70075;SDS011;63241;51.056;3.698;2022-12-11T04:21:11;48.70;;;25.02;;
70075;SDS011;63241;51.056;3.698;2022-12-11T04:30:26;44.77;;;23.60;;
70075;SDS011;63241;51.056;3.698;2022-12-11T04:32:54;48.02;;;25.00;;
70075;SDS011;63241;51.056;3.698;2022-12-11T04:35:22;44.67;;;23.00;;
70075;SDS011;63241;51.056;3.698;2022-12-11T05:39:31;55.60;;;29.18;;
70075;SDS011;63241;51.056;3.698;2022-12-11T05:41:59;58.28;;;31.35;;
70075;SDS011;63241;51.056;3.698;2022-12-11T05:44:26;54.40;;;29.72;;
70075;SDS011;63241;51.056;3.698;2022-12-11T05:53:28;54.77;;;29.72;;
70075;SDS011;63241;51.056;3.698;2022-12-11T05:56:05;61.77;;;29.40;;
70075;SDS011;63241;51.056;3.698;2022-12-11T05:58:30;55.55;;;30.85;;
70075;SDS011;63241;51.056;3.698;2022-12-11T06:07:28;63.87;;;35.95;;
70075;SDS011;63241;51.056;3.698;2022-12-11T06:09:55;59.95;;;30.23;;
70075;SDS011;63241;51.056;3.698;2022-12-11T06:12:23;69.10;;;35.17;;
70075;SDS011;63241;51.056;3.698;2022-12-11T06:20:55;70.80;;;36.33;;
70075;SDS011;63241;51.056;3.698;2022-12-11T06:23:23;63.38;;;33.80;;
70075;SDS011;63241;51.056;3.698;2022-12-11T06:25:51;66.53;;;35.10;;
70075;SDS011;63241;51.056;3.698;2022-12-11T06:32:08;68.47;;;36.55;;
70075;SDS011;63241;51.056;3.698;2022-12-11T06:34:35;64.75;;;36.20;;
70075;SDS011;63241;51.056;3.698;2022-12-11T06:37:03;72.37;;;37.17;;
70075;SDS011;63241;51.056;3.698;2022-12-11T06:39:32;67.22;;;36.58;;
70075;SDS011;63241;51.056;3.698;2022-12-11T06:48:31;67.35;;;36.85;;
70075;SDS011;63241;51.056;3.698;2022-12-11T06:50:59;64.92;;;35.40;;
70075;SDS011;63241;51.056;3.698;2022-12-11T06:53:32;69.17;;;36.50;;
70075;SDS011;63241;51.056;3.698;2022-12-11T19:08:19;27.15;;;15.98;;
70075;SDS011;63241;51.056;3.698;2022-12-11T19:10:47;26.57;;;15.50;;
70075;SDS011;63241;51.056;3.698;2022-12-11T19:13:14;32.63;;;16.25;;
70075;SDS011;63241;51.056;3.698;2022-12-11T19:15:42;27.70;;;15.18;;
70075;SDS011;63241;51.056;3.698;2022-12-11T19:18:10;29.77;;;14.75;;
70075;SDS011;63241;51.056;3.698;2022-12-11T19:24:21;29.10;;;15.18;;
70075;SDS011;63241;51.056;3.698;2022-12-11T19:26:50;25.20;;;14.80;;
70075;SDS011;63241;51.056;3.698;2022-12-11T19:29:32;25.43;;;15.03;;
70075;SDS011;63241;51.056;3.698;2022-12-11T19:31:51;20.70;;;13.32;;
70075;SDS011;63241;51.056;3.698;2022-12-11T19:37:54;23.70;;;13.93;;
70075;SDS011;63241;51.056;3.698;2022-12-11T19:40:22;25.20;;;14.65;;
70075;SDS011;63241;51.056;3.698;2022-12-11T19:42:51;42.78;;;26.87;;
70075;SDS011;63241;51.056;3.698;2022-12-11T19:45:18;25.48;;;15.95;;
70075;SDS011;63241;51.056;3.698;2022-12-11T19:51:29;28.77;;;15.83;;
70075;SDS011;63241;51.056;3.698;2022-12-11T19:53:59;24.32;;;15.68;;
70075;SDS011;63241;51.056;3.698;2022-12-11T19:56:27;31.15;;;15.88;;
70075;SDS011;63241;51.056;3.698;2022-12-11T19:58:56;26.68;;;14.58;;
70075;SDS011;63241;51.056;3.698;2022-12-11T20:07:19;26.57;;;16.48;;
70075;SDS011;63241;51.056;3.698;2022-12-11T20:09:47;27.60;;;14.98;;
70075;SDS011;63241;51.056;3.698;2022-12-11T20:12:14;26.27;;;14.83;;
70075;SDS011;63241;51.056;3.698;2022-12-11T20:21:11;34.40;;;19.77;;
70075;SDS011;63241;51.056;3.698;2022-12-11T20:23:41;30.15;;;16.20;;
70075;SDS011;63241;51.056;3.698;2022-12-11T20:26:14;32.75;;;16.52;;
70075;SDS011;63241;51.056;3.698;2022-12-11T20:32:25;27.60;;;15.83;;
70075;SDS011;63241;51.056;3.698;2022-12-11T20:34:58;33.50;;;16.95;;
70075;SDS011;63241;51.056;3.698;2022-12-11T20:37:23;30.72;;;16.67;;
70075;SDS011;63241;51.056;3.698;2022-12-11T20:39:51;34.92;;;17.00;;
70075;SDS011;63241;51.056;3.698;2022-12-11T20:46:06;30.35;;;16.77;;
70075;SDS011;63241;51.056;3.698;2022-12-11T20:48:36;31.57;;;16.50;;
70075;SDS011;63241;51.056;3.698;2022-12-11T20:51:05;33.48;;;17.12;;
70075;SDS011;63241;51.056;3.698;2022-12-11T20:53:34;33.85;;;18.50;;
70075;SDS011;63241;51.056;3.698;2022-12-11T20:59:43;33.25;;;17.52;;
70075;SDS011;63241;51.056;3.698;2022-12-11T21:02:11;33.85;;;19.12;;
70075;SDS011;63241;51.056;3.698;2022-12-11T21:04:39;31.82;;;17.85;;
70075;SDS011;63241;51.056;3.698;2022-12-11T21:07:08;32.50;;;17.10;;
70075;SDS011;63241;51.056;3.698;2022-12-11T21:13:17;31.23;;;16.87;;
70075;SDS011;63241;51.056;3.698;2022-12-11T21:15:48;29.65;;;16.60;;
70075;SDS011;63241;51.056;3.698;2022-12-11T21:18:17;28.65;;;16.95;;
70075;SDS011;63241;51.056;3.698;2022-12-11T21:20:45;30.43;;;16.15;;
70075;SDS011;63241;51.056;3.698;2022-12-11T21:28:57;28.05;;;15.98;;
70075;SDS011;63241;51.056;3.698;2022-12-11T21:31:25;27.60;;;17.52;;
70075;SDS011;63241;51.056;3.698;2022-12-11T21:33:53;28.32;;;16.15;;
70075;SDS011;63241;51.056;3.698;2022-12-11T21:42:48;26.90;;;16.48;;
70075;SDS011;63241;51.056;3.698;2022-12-11T21:45:16;31.07;;;17.45;;
70075;SDS011;63241;51.056;3.698;2022-12-11T21:47:43;29.05;;;16.97;;
70075;SDS011;63241;51.056;3.698;2022-12-11T21:56:44;40.52;;;18.95;;
70075;SDS011;63241;51.056;3.698;2022-12-11T21:59:13;32.93;;;18.02;;
70075;SDS011;63241;51.056;3.698;2022-12-11T22:01:41;28.57;;;16.65;;
70075;SDS011;63241;51.056;3.698;2022-12-11T22:07:57;34.85;;;19.48;;
70075;SDS011;63241;51.056;3.698;2022-12-11T22:10:24;32.98;;;18.85;;
70075;SDS011;63241;51.056;3.698;2022-12-11T22:13:34;29.57;;;16.42;;
70075;SDS011;63241;51.056;3.698;2022-12-11T22:22:58;37.35;;;19.35;;
70075;SDS011;63241;51.056;3.698;2022-12-11T22:25:26;33.65;;;20.35;;
70075;SDS011;63241;51.056;3.698;2022-12-11T22:27:54;33.18;;;17.95;;
70075;SDS011;63241;51.056;3.698;2022-12-11T22:36:37;37.28;;;19.35;;
70075;SDS011;63241;51.056;3.698;2022-12-11T22:39:04;28.98;;;17.32;;
70075;SDS011;63241;51.056;3.698;2022-12-11T22:41:32;33.90;;;18.23;;
70075;SDS011;63241;51.056;3.698;2022-12-11T22:44:02;29.90;;;17.15;;
70075;SDS011;63241;51.056;3.698;2022-12-11T22:46:30;31.42;;;19.07;;
70075;SDS011;63241;51.056;3.698;2022-12-11T22:48:58;29.32;;;16.97;;
70075;SDS011;63241;51.056;3.698;2022-12-11T22:51:25;33.48;;;18.48;;
70075;SDS011;63241;51.056;3.698;2022-12-11T23:02:07;37.38;;;18.15;;
70075;SDS011;63241;51.056;3.698;2022-12-11T23:04:35;37.73;;;19.70;;
70075;SDS011;63241;51.056;3.698;2022-12-11T23:07:03;32.53;;;18.75;;
70075;SDS011;63241;51.056;3.698;2022-12-11T23:09:30;36.30;;;18.77;;
70075;SDS011;63241;51.056;3.698;2022-12-11T23:11:58;32.17;;;18.25;;
70075;SDS011;63241;51.056;3.698;2022-12-11T23:14:26;40.10;;;20.25;;
70075;SDS011;63241;51.056;3.698;2022-12-11T23:16:54;35.95;;;19.75;;
70075;SDS011;63241;51.056;3.698;2022-12-11T23:19:22;36.93;;;20.23;;
70075;SDS011;63241;51.056;3.698;2022-12-11T23:21:50;33.83;;;18.73;;
70075;SDS011;63241;51.056;3.698;2022-12-11T23:24:18;38.98;;;20.97;;
70075;SDS011;63241;51.056;3.698;2022-12-11T23:26:47;37.15;;;19.62;;
70075;SDS011;63241;51.056;3.698;2022-12-11T23:29:15;39.98;;;20.52;;
70075;SDS011;63241;51.056;3.698;2022-12-11T23:31:42;34.60;;;18.65;;
70075;SDS011;63241;51.056;3.698;2022-12-11T23:34:10;37.38;;;18.60;;
70075;SDS011;63241;51.056;3.698;2022-12-11T23:36:38;36.03;;;19.02;;
70075;SDS011;63241;51.056;3.698;2022-12-11T23:39:06;39.08;;;20.82;;
70075;SDS011;63241;51.056;3.698;2022-12-11T23:41:34;41.08;;;21.65;;
70075;SDS011;63241;51.056;3.698;2022-12-11T23:44:01;31.05;;;17.20;;
70075;SDS011;63241;51.056;3.698;2022-12-11T23:46:30;38.73;;;21.60;;
70075;SDS011;63241;51.056;3.698;2022-12-11T23:48:57;39.80;;;20.65;;
70075;SDS011;63241;51.056;3.698;2022-12-11T23:51:25;42.35;;;21.05;;
70075;SDS011;63241;51.056;3.698;2022-12-11T23:53:54;34.90;;;18.40;;
70075;SDS011;63241;51.056;3.698;2022-12-11T23:56:26;42.35;;;21.33;;
70075;SDS011;63241;51.056;3.698;2022-12-11T23:58:55;38.90;;;20.88;;
